Cheb, Czech Republic
Current Conditions -  °F | °C
As of 6:50 PM on Wednesday 17 Dec 2014 (Local Time) from EDQM Reporting Station
Light Snow Light Snow  
Wind Chill: 24°   Ceiling: 600
Heat Index: 34°   Visibility: 2.3mi
Dew Point: 32°   Wind: 16mph
Humidity: 93%   Direction: 210°SSW
Pressure: 29.68"   Gusts: NA
Location:  50.08°N, 12.35°E
Report Text: EDQM 171650Z 21014KT 3700 -SN BKN006 OVC009 01/M00 Q1005
Loading
Personal Weather Stations






























Interactive Weather Map New forecast layout! Learn more

10-Day Weather Forecast

Advertisements
Track Severe Weather on mobile